Impacts TAF Board
For situational awareness. Not to be used for flight planning purposes.
IDs:

KIWA - Phoenix/Mesa Gateway, AZ, US

Issued at 1720 UTC 01 Feb 2023
Updated at 2225 UTC 01 Feb 2023
Potential Impact None Slight Moderate High
Time2147Z 01/23Z 02/00Z 02/01Z 02/02Z 02/03Z 02/04Z 02/05Z 02/06Z 02/07Z 02/08Z 02/09Z 02/10Z 02/11Z>>
Type OBS PRVL PRVL PRVL PRVL PRVL PRVL PRVL PRVL PRVL PRVL PRVL PRVL PRVL
VIS 10 >6 >6 >6 >6 >6 >6 >6 >6 >6 >6 >6 >6 >6
CIG -- -- -- -- -- -- -- -- -- -- -- -- -- --
Cover CLR SKC SKC SKC SKC SKC SKC SKC SKC SKC SKC SKC SKC SKC
FltCat VFR VFR VFR VFR VFR VFR VFR VFR VFR VFR VFR VFR VFR VFR
WX -- -- -- -- -- -- -- -- -- -- -- -- -- --
WDir 310 250 250 250 250 250 250 250 250 120 120 120 120 120
WSpd 11 5 5 5 5 5 5 5 5 4 4 4 4 4
WGst -- -- -- -- -- -- -- -- -- -- -- -- -- --
WSHgt -- -- -- -- -- -- -- -- -- -- -- -- -- --
WSDir -- -- -- -- -- -- -- -- -- -- -- -- -- --
WSSpd -- -- -- -- -- -- -- -- -- -- -- -- -- --
R12/30
XWnd -1 -5 -5 -5 -5 -5 -5 -5 -5 1 1 1 1 1
HWnd -11 -2 -2 -2 -2 -2 -2 -2 -2 4 4 4 4 4

NOTE: LAMP data beyond the time of the TAF data is denoted as LAMP in Type and colored magenta.

Raw TAF
KIWA 011720Z 0118/0218 11004KT P6SM SKC
  FM011900 25005KT P6SM SKC
  FM020700 12004KT P6SM SKC


Raw METAR
KIWA 012147Z 31011KT 10SM CLR 18/M03 A3004
KIWA 012047Z 33011KT 10SM CLR 18/M03 A3005
KIWA 011947Z 29004KT 10SM CLR 16/M03 A3007

METAR Board
Radar Display
Forecast Discussion

For situational awareness. Not to be used for flight planning purposes.